Terminal Aerodrome Forecast
Issued by NWS

Home | Current Version | Previous Version | Text Only | Print | Product List | Glossary On
Versions: 1 2 3 4 5 6 7 8 9 10 11 12 13 14
000
FTUS45 KCYS 221734
TAFAIA
TAF
KAIA 221734Z 2218/2318 16010KT P6SM VCSH OVC015
      TEMPO 2220/2224 2SM -SN BR
     FM230000 16005KT P6SM SCT015 OVC025
     FM230400 27005KT P6SM SCT020 BKN040
     FM231100 VRB05KT 3SM BR SCT007 BKN015=

USA.gov is the U.S. government's official web portal to all federal, state and local government web resources and services.